Terminal Aerodrome Forecast
Issued by NWS

Home | Current Version | Previous Version | Text Only | Print | Product List | Glossary On
Versions: 1 2 3 4 5 6 7 8 9 10 11 12 13 14 15 16 17 18 19 20
000
FTUS44 KHGX 241501 AAA
TAFCXO
TAF AMD
KCXO 241501Z 2415/2512 18014KT P6SM VCTS SCT020CB
      TEMPO 2415/2416 VRB12G18KT 5SM -TSRA BKN020CB
     FM241700 18011KT P6SM SCT030
     FM242300 18007KT P6SM BKN050
     FM250600 07002KT 4SM BR FEW050 FEW250
     FM250900 00000KT 1 1/2SM BR SCT008=

USA.gov is the U.S. government's official web portal to all federal, state and local government web resources and services.